Williams, AZ

6:22 PM MST on February 13, 2016 (GMT -0700)
Williams, AZ | | Change Station
CLOSE
Current Station
Personal Weather Station
Location: Williams, AZ
Elevation: 7100 ft
Nearby Weather Stations

Elev 7100 ft 35.23 °N, 112.17 °W | Updated 54 seconds ago

Clear
Clear
43.0 °F
Feels Like 43 °F
N
0.0
Wind Variable Wind from ESE
Gusts 0.0 mph

Today
High -- | Low -- °F
--% Chance of Precip.
Yesterday
High -- | Low -- °F
Precip. -- in
Pressure 30.28 in
Visibility 10.0 miles
Clouds Clear
Windchill 43 °F
Dew Point 24 °F
Humidity 47%
Rainfall 0.00 in
Snow Depth Not available.
7:17 AM 6:08 PM
Waxing Crescent, 36% visible
METAR KCMR 140115Z AUTO 31004KT 10SM CLR 12/M12 A3028 RMK AO2
Pressure 30.28 in
Visibility 10.0 miles
Clouds Clear
Windchill 43 °F
Dew Point 24 °F
Humidity 47%
Rainfall 0.00 in
Snow Depth Not available.
7:17 AM 6:08 PM
Waxing Crescent, 36% visible
METAR KCMR 140115Z AUTO 31004KT 10SM CLR 12/M12 A3028 RMK AO2

10-Day Weather Forecast

Almanac

Astronomy

Feb. 13, 2016 Rise Set
Actual Time
Civil Twilight
Nautical Twilight
Astronomical Twilight
Moon
Length of Visible Light
Length of Day
Tomorrow will be .
, % of the Moon is Illuminated

Today's Extremes

State Highs State Lows

Community

WunderPhotos

Upload Photos

1,892,722 photos uploaded!

WunderBlog® & News

Nearby

Air Quality

  Air Quality AQ Index Pollutant
Not available.

Snow Depth

Station Depth Elevation

Earthquake Activity

City Distance Mag. Time & Date
Minimum magnitude displayed is 2.5.

Coastal Water Temperatures

Place Temperature

Stations

Nearby Weather Stations

Station Location Temp. Windchill Dew Point Humidity Wind Precip. Elev Updated Type
                   

Watches & Warnings

There are currently no watches in effect.